sensor_id;sensor_type;location;lat;lon;timestamp;P1;durP1;ratioP1;P2;durP2;ratioP2
2522;SDS011;1272;53.332;9.860;2024-02-04T00:00:30;5.17;;;1.63;;
2522;SDS011;1272;53.332;9.860;2024-02-04T00:02:55;5.00;;;2.90;;
2522;SDS011;1272;53.332;9.860;2024-02-04T00:05:21;7.60;;;1.73;;
2522;SDS011;1272;53.332;9.860;2024-02-04T00:07:47;11.27;;;1.83;;
2522;SDS011;1272;53.332;9.860;2024-02-04T00:10:12;6.20;;;2.23;;
2522;SDS011;1272;53.332;9.860;2024-02-04T00:12:40;4.27;;;2.33;;
2522;SDS011;1272;53.332;9.860;2024-02-04T00:15:06;6.37;;;1.67;;
2522;SDS011;1272;53.332;9.860;2024-02-04T00:17:33;4.33;;;2.10;;
2522;SDS011;1272;53.332;9.860;2024-02-04T00:20:02;7.03;;;1.80;;
2522;SDS011;1272;53.332;9.860;2024-02-04T00:22:30;6.20;;;2.90;;
2522;SDS011;1272;53.332;9.860;2024-02-04T00:24:56;3.87;;;1.67;;
2522;SDS011;1272;53.332;9.860;2024-02-04T00:27:26;2.90;;;2.60;;
2522;SDS011;1272;53.332;9.860;2024-02-04T00:29:52;14.97;;;2.43;;
2522;SDS011;1272;53.332;9.860;2024-02-04T00:32:18;13.30;;;1.80;;
2522;SDS011;1272;53.332;9.860;2024-02-04T00:34:44;4.43;;;2.47;;
2522;SDS011;1272;53.332;9.860;2024-02-04T00:37:09;7.87;;;1.80;;
2522;SDS011;1272;53.332;9.860;2024-02-04T00:39:35;4.10;;;1.90;;
2522;SDS011;1272;53.332;9.860;2024-02-04T00:42:01;4.27;;;2.30;;
2522;SDS011;1272;53.332;9.860;2024-02-04T00:44:26;3.83;;;2.07;;
2522;SDS011;1272;53.332;9.860;2024-02-04T00:46:52;6.03;;;1.80;;
2522;SDS011;1272;53.332;9.860;2024-02-04T00:49:17;4.87;;;1.87;;
2522;SDS011;1272;53.332;9.860;2024-02-04T00:51:43;16.23;;;2.47;;
2522;SDS011;1272;53.332;9.860;2024-02-04T00:54:09;2.73;;;1.23;;
2522;SDS011;1272;53.332;9.860;2024-02-04T00:56:35;2.67;;;1.97;;
2522;SDS011;1272;53.332;9.860;2024-02-04T00:59:03;2.97;;;1.70;;
2522;SDS011;1272;53.332;9.860;2024-02-04T01:01:28;6.60;;;1.93;;
2522;SDS011;1272;53.332;9.860;2024-02-04T01:03:54;6.63;;;2.10;;
2522;SDS011;1272;53.332;9.860;2024-02-04T01:06:20;1.53;;;1.40;;
2522;SDS011;1272;53.332;9.860;2024-02-04T01:08:45;7.03;;;2.20;;
2522;SDS011;1272;53.332;9.860;2024-02-04T01:11:11;7.50;;;1.37;;
2522;SDS011;1272;53.332;9.860;2024-02-04T01:13:37;4.97;;;1.90;;
2522;SDS011;1272;53.332;9.860;2024-02-04T01:16:02;5.10;;;3.07;;
2522;SDS011;1272;53.332;9.860;2024-02-04T01:18:28;5.30;;;2.20;;
2522;SDS011;1272;53.332;9.860;2024-02-04T01:20:56;4.00;;;1.53;;
2522;SDS011;1272;53.332;9.860;2024-02-04T01:23:22;4.47;;;1.90;;
2522;SDS011;1272;53.332;9.860;2024-02-04T01:25:47;6.27;;;2.03;;
2522;SDS011;1272;53.332;9.860;2024-02-04T01:28:14;5.23;;;1.97;;
2522;SDS011;1272;53.332;9.860;2024-02-04T01:30:39;3.97;;;1.63;;
2522;SDS011;1272;53.332;9.860;2024-02-04T01:33:05;5.13;;;1.60;;
2522;SDS011;1272;53.332;9.860;2024-02-04T01:35:31;2.33;;;1.63;;
2522;SDS011;1272;53.332;9.860;2024-02-04T01:37:57;5.77;;;2.03;;
2522;SDS011;1272;53.332;9.860;2024-02-04T01:40:22;4.07;;;1.60;;
2522;SDS011;1272;53.332;9.860;2024-02-04T01:42:48;6.20;;;1.80;;
2522;SDS011;1272;53.332;9.860;2024-02-04T01:45:13;5.53;;;2.10;;
2522;SDS011;1272;53.332;9.860;2024-02-04T01:47:39;3.13;;;1.60;;
2522;SDS011;1272;53.332;9.860;2024-02-04T01:50:05;2.83;;;1.47;;
2522;SDS011;1272;53.332;9.860;2024-02-04T01:52:32;9.37;;;1.80;;
2522;SDS011;1272;53.332;9.860;2024-02-04T01:55:00;5.40;;;2.00;;
2522;SDS011;1272;53.332;9.860;2024-02-04T01:57:30;4.80;;;1.67;;
2522;SDS011;1272;53.332;9.860;2024-02-04T01:59:56;4.13;;;1.83;;
2522;SDS011;1272;53.332;9.860;2024-02-04T02:02:23;2.50;;;1.97;;
2522;SDS011;1272;53.332;9.860;2024-02-04T02:04:50;2.17;;;1.53;;
2522;SDS011;1272;53.332;9.860;2024-02-04T02:07:17;5.80;;;2.17;;
2522;SDS011;1272;53.332;9.860;2024-02-04T02:09:46;7.40;;;2.53;;
2522;SDS011;1272;53.332;9.860;2024-02-04T02:12:13;4.20;;;1.83;;
2522;SDS011;1272;53.332;9.860;2024-02-04T02:14:48;6.00;;;1.90;;
2522;SDS011;1272;53.332;9.860;2024-02-04T02:17:24;11.33;;;2.30;;
2522;SDS011;1272;53.332;9.860;2024-02-04T02:20:10;5.50;;;2.33;;
2522;SDS011;1272;53.332;9.860;2024-02-04T02:22:50;12.13;;;2.10;;
2522;SDS011;1272;53.332;9.860;2024-02-04T02:25:38;7.13;;;1.50;;
2522;SDS011;1272;53.332;9.860;2024-02-04T02:28:04;4.40;;;1.53;;
2522;SDS011;1272;53.332;9.860;2024-02-04T02:30:31;3.00;;;1.70;;
2522;SDS011;1272;53.332;9.860;2024-02-04T02:32:56;5.93;;;1.73;;
2522;SDS011;1272;53.332;9.860;2024-02-04T02:35:22;6.30;;;1.70;;
2522;SDS011;1272;53.332;9.860;2024-02-04T02:40:25;4.97;;;1.80;;
2522;SDS011;1272;53.332;9.860;2024-02-04T02:42:55;6.33;;;2.43;;
2522;SDS011;1272;53.332;9.860;2024-02-04T02:45:25;7.97;;;2.30;;
2522;SDS011;1272;53.332;9.860;2024-02-04T02:47:51;7.07;;;2.33;;
2522;SDS011;1272;53.332;9.860;2024-02-04T02:50:19;8.27;;;2.60;;
2522;SDS011;1272;53.332;9.860;2024-02-04T02:52:45;6.07;;;1.80;;
2522;SDS011;1272;53.332;9.860;2024-02-04T02:55:11;3.53;;;2.23;;
2522;SDS011;1272;53.332;9.860;2024-02-04T02:57:37;1.90;;;1.80;;
2522;SDS011;1272;53.332;9.860;2024-02-04T03:00:02;5.07;;;2.00;;
2522;SDS011;1272;53.332;9.860;2024-02-04T03:02:30;4.33;;;2.20;;
2522;SDS011;1272;53.332;9.860;2024-02-04T03:04:56;6.90;;;2.10;;
2522;SDS011;1272;53.332;9.860;2024-02-04T03:07:22;2.40;;;2.00;;
2522;SDS011;1272;53.332;9.860;2024-02-04T03:09:47;4.40;;;2.70;;
2522;SDS011;1272;53.332;9.860;2024-02-04T03:12:13;4.10;;;2.60;;
2522;SDS011;1272;53.332;9.860;2024-02-04T03:14:39;4.77;;;1.97;;
2522;SDS011;1272;53.332;9.860;2024-02-04T03:17:05;7.43;;;2.60;;
2522;SDS011;1272;53.332;9.860;2024-02-04T03:19:30;4.07;;;2.50;;
2522;SDS011;1272;53.332;9.860;2024-02-04T03:21:56;6.10;;;3.80;;
2522;SDS011;1272;53.332;9.860;2024-02-04T03:24:22;4.67;;;1.90;;
2522;SDS011;1272;53.332;9.860;2024-02-04T03:26:47;5.50;;;2.60;;
2522;SDS011;1272;53.332;9.860;2024-02-04T03:29:13;3.00;;;2.63;;
2522;SDS011;1272;53.332;9.860;2024-02-04T03:31:39;12.33;;;2.83;;
2522;SDS011;1272;53.332;9.860;2024-02-04T03:34:04;3.50;;;1.97;;
2522;SDS011;1272;53.332;9.860;2024-02-04T03:36:30;5.47;;;3.60;;
2522;SDS011;1272;53.332;9.860;2024-02-04T03:38:56;9.03;;;3.63;;
2522;SDS011;1272;53.332;9.860;2024-02-04T03:41:22;6.13;;;2.53;;
2522;SDS011;1272;53.332;9.860;2024-02-04T03:43:47;4.37;;;3.20;;
2522;SDS011;1272;53.332;9.860;2024-02-04T03:46:16;9.93;;;3.33;;
2522;SDS011;1272;53.332;9.860;2024-02-04T03:48:42;3.60;;;2.53;;
2522;SDS011;1272;53.332;9.860;2024-02-04T03:51:08;4.97;;;2.60;;
2522;SDS011;1272;53.332;9.860;2024-02-04T03:53:39;6.87;;;3.60;;
2522;SDS011;1272;53.332;9.860;2024-02-04T03:56:05;4.97;;;3.50;;
2522;SDS011;1272;53.332;9.860;2024-02-04T03:58:32;5.87;;;3.53;;
2522;SDS011;1272;53.332;9.860;2024-02-04T04:00:58;4.50;;;3.30;;
2522;SDS011;1272;53.332;9.860;2024-02-04T04:03:24;6.73;;;2.87;;
2522;SDS011;1272;53.332;9.860;2024-02-04T04:05:51;3.40;;;3.10;;
2522;SDS011;1272;53.332;9.860;2024-02-04T04:08:18;10.13;;;3.00;;
2522;SDS011;1272;53.332;9.860;2024-02-04T04:10:44;10.80;;;5.63;;
2522;SDS011;1272;53.332;9.860;2024-02-04T04:13:10;9.60;;;3.80;;
2522;SDS011;1272;53.332;9.860;2024-02-04T04:15:37;6.67;;;3.57;;
2522;SDS011;1272;53.332;9.860;2024-02-04T04:18:03;4.93;;;3.23;;
2522;SDS011;1272;53.332;9.860;2024-02-04T04:20:29;8.30;;;3.73;;
2522;SDS011;1272;53.332;9.860;2024-02-04T04:22:55;14.60;;;4.40;;
2522;SDS011;1272;53.332;9.860;2024-02-04T04:25:21;6.73;;;4.57;;
2522;SDS011;1272;53.332;9.860;2024-02-04T04:27:46;8.77;;;4.17;;
2522;SDS011;1272;53.332;9.860;2024-02-04T04:30:12;8.87;;;4.70;;
2522;SDS011;1272;53.332;9.860;2024-02-04T04:32:38;8.03;;;3.80;;
2522;SDS011;1272;53.332;9.860;2024-02-04T04:35:03;5.03;;;4.40;;
2522;SDS011;1272;53.332;9.860;2024-02-04T04:37:29;6.23;;;4.50;;
2522;SDS011;1272;53.332;9.860;2024-02-04T04:39:55;6.53;;;4.00;;
2522;SDS011;1272;53.332;9.860;2024-02-04T04:42:20;6.57;;;4.70;;
2522;SDS011;1272;53.332;9.860;2024-02-04T04:44:46;11.03;;;3.70;;
2522;SDS011;1272;53.332;9.860;2024-02-04T04:47:12;9.80;;;4.70;;
2522;SDS011;1272;53.332;9.860;2024-02-04T04:49:39;8.03;;;5.23;;
2522;SDS011;1272;53.332;9.860;2024-02-04T04:52:05;9.70;;;4.00;;
2522;SDS011;1272;53.332;9.860;2024-02-04T04:54:30;9.10;;;5.10;;
2522;SDS011;1272;53.332;9.860;2024-02-04T04:56:56;8.00;;;4.70;;
2522;SDS011;1272;53.332;9.860;2024-02-04T04:59:22;9.33;;;4.77;;
2522;SDS011;1272;53.332;9.860;2024-02-04T05:01:48;8.43;;;4.20;;
2522;SDS011;1272;53.332;9.860;2024-02-04T05:04:14;7.57;;;4.63;;
2522;SDS011;1272;53.332;9.860;2024-02-04T05:06:41;6.50;;;4.00;;
2522;SDS011;1272;53.332;9.860;2024-02-04T05:09:07;8.37;;;4.03;;
2522;SDS011;1272;53.332;9.860;2024-02-04T05:11:32;8.80;;;4.80;;
2522;SDS011;1272;53.332;9.860;2024-02-04T05:13:58;7.40;;;4.03;;
2522;SDS011;1272;53.332;9.860;2024-02-04T05:16:24;10.47;;;4.83;;
2522;SDS011;1272;53.332;9.860;2024-02-04T05:18:50;5.03;;;3.40;;
2522;SDS011;1272;53.332;9.860;2024-02-04T05:21:15;9.77;;;3.53;;
2522;SDS011;1272;53.332;9.860;2024-02-04T05:23:41;10.73;;;4.93;;
2522;SDS011;1272;53.332;9.860;2024-02-04T05:26:07;7.30;;;4.30;;
2522;SDS011;1272;53.332;9.860;2024-02-04T05:28:32;8.13;;;4.20;;
2522;SDS011;1272;53.332;9.860;2024-02-04T05:30:58;6.60;;;3.80;;
2522;SDS011;1272;53.332;9.860;2024-02-04T05:33:24;5.43;;;3.50;;
2522;SDS011;1272;53.332;9.860;2024-02-04T05:35:49;5.80;;;3.57;;
2522;SDS011;1272;53.332;9.860;2024-02-04T05:38:18;4.53;;;2.57;;
2522;SDS011;1272;53.332;9.860;2024-02-04T05:40:44;5.83;;;3.17;;
2522;SDS011;1272;53.332;9.860;2024-02-04T05:43:09;21.97;;;3.33;;
2522;SDS011;1272;53.332;9.860;2024-02-04T05:45:38;5.47;;;3.47;;
2522;SDS011;1272;53.332;9.860;2024-02-04T05:48:06;7.23;;;3.50;;
2522;SDS011;1272;53.332;9.860;2024-02-04T05:50:32;8.60;;;2.73;;
2522;SDS011;1272;53.332;9.860;2024-02-04T05:52:58;6.53;;;2.90;;
2522;SDS011;1272;53.332;9.860;2024-02-04T05:55:24;3.50;;;3.03;;
2522;SDS011;1272;53.332;9.860;2024-02-04T05:57:49;5.50;;;2.57;;
2522;SDS011;1272;53.332;9.860;2024-02-04T06:00:15;4.93;;;2.90;;
2522;SDS011;1272;53.332;9.860;2024-02-04T06:02:41;3.67;;;2.57;;
2522;SDS011;1272;53.332;9.860;2024-02-04T06:05:11;3.63;;;2.40;;
2522;SDS011;1272;53.332;9.860;2024-02-04T06:07:37;6.20;;;2.73;;
2522;SDS011;1272;53.332;9.860;2024-02-04T06:10:03;4.23;;;2.10;;
2522;SDS011;1272;53.332;9.860;2024-02-04T06:12:29;2.40;;;2.30;;
2522;SDS011;1272;53.332;9.860;2024-02-04T06:14:55;3.40;;;2.47;;
2522;SDS011;1272;53.332;9.860;2024-02-04T06:17:21;8.57;;;2.20;;
2522;SDS011;1272;53.332;9.860;2024-02-04T06:19:47;3.50;;;2.10;;
2522;SDS011;1272;53.332;9.860;2024-02-04T06:22:13;6.43;;;2.10;;
2522;SDS011;1272;53.332;9.860;2024-02-04T06:24:40;8.93;;;2.43;;
2522;SDS011;1272;53.332;9.860;2024-02-04T06:27:07;5.90;;;2.10;;
2522;SDS011;1272;53.332;9.860;2024-02-04T06:29:33;4.27;;;2.10;;
2522;SDS011;1272;53.332;9.860;2024-02-04T06:31:59;3.53;;;2.50;;
2522;SDS011;1272;53.332;9.860;2024-02-04T06:34:25;3.80;;;2.07;;
2522;SDS011;1272;53.332;9.860;2024-02-04T06:36:50;3.63;;;2.50;;
2522;SDS011;1272;53.332;9.860;2024-02-04T06:39:16;3.23;;;2.07;;
2522;SDS011;1272;53.332;9.860;2024-02-04T06:41:42;9.03;;;2.60;;
2522;SDS011;1272;53.332;9.860;2024-02-04T06:44:07;3.80;;;2.17;;
2522;SDS011;1272;53.332;9.860;2024-02-04T06:46:33;5.20;;;1.60;;
2522;SDS011;1272;53.332;9.860;2024-02-04T06:48:59;7.27;;;2.47;;
2522;SDS011;1272;53.332;9.860;2024-02-04T06:51:25;7.30;;;2.20;;
2522;SDS011;1272;53.332;9.860;2024-02-04T06:53:50;6.70;;;2.10;;
2522;SDS011;1272;53.332;9.860;2024-02-04T06:56:16;4.43;;;1.70;;
2522;SDS011;1272;53.332;9.860;2024-02-04T06:58:42;5.00;;;1.70;;
2522;SDS011;1272;53.332;9.860;2024-02-04T07:01:08;4.17;;;1.70;;
2522;SDS011;1272;53.332;9.860;2024-02-04T07:03:35;6.93;;;2.20;;
2522;SDS011;1272;53.332;9.860;2024-02-04T07:06:01;6.50;;;2.17;;
2522;SDS011;1272;53.332;9.860;2024-02-04T07:08:26;2.00;;;1.40;;
2522;SDS011;1272;53.332;9.860;2024-02-04T07:10:52;6.30;;;2.40;;
2522;SDS011;1272;53.332;9.860;2024-02-04T07:13:19;7.60;;;2.00;;
2522;SDS011;1272;53.332;9.860;2024-02-04T07:15:45;3.97;;;1.60;;
2522;SDS011;1272;53.332;9.860;2024-02-04T07:18:10;9.40;;;3.10;;
2522;SDS011;1272;53.332;9.860;2024-02-04T07:20:36;4.43;;;1.27;;
2522;SDS011;1272;53.332;9.860;2024-02-04T07:23:03;6.67;;;1.90;;
2522;SDS011;1272;53.332;9.860;2024-02-04T07:25:29;2.10;;;1.43;;
2522;SDS011;1272;53.332;9.860;2024-02-04T07:27:55;6.00;;;2.73;;
2522;SDS011;1272;53.332;9.860;2024-02-04T07:30:22;3.97;;;2.37;;
2522;SDS011;1272;53.332;9.860;2024-02-04T07:32:48;11.00;;;2.00;;
2522;SDS011;1272;53.332;9.860;2024-02-04T07:35:14;4.20;;;1.47;;
2522;SDS011;1272;53.332;9.860;2024-02-04T07:37:39;2.20;;;1.67;;
2522;SDS011;1272;53.332;9.860;2024-02-04T07:40:05;3.77;;;1.70;;
2522;SDS011;1272;53.332;9.860;2024-02-04T07:42:31;1.97;;;1.40;;
2522;SDS011;1272;53.332;9.860;2024-02-04T07:44:57;8.63;;;1.83;;
2522;SDS011;1272;53.332;9.860;2024-02-04T07:47:23;2.90;;;1.93;;
2522;SDS011;1272;53.332;9.860;2024-02-04T07:49:49;3.93;;;1.70;;
2522;SDS011;1272;53.332;9.860;2024-02-04T07:52:15;6.83;;;2.47;;
2522;SDS011;1272;53.332;9.860;2024-02-04T07:54:41;2.33;;;1.60;;
2522;SDS011;1272;53.332;9.860;2024-02-04T07:57:11;3.13;;;1.80;;
2522;SDS011;1272;53.332;9.860;2024-02-04T07:59:37;6.73;;;1.87;;
2522;SDS011;1272;53.332;9.860;2024-02-04T08:02:03;3.70;;;2.97;;
2522;SDS011;1272;53.332;9.860;2024-02-04T08:04:32;3.97;;;2.20;;
2522;SDS011;1272;53.332;9.860;2024-02-04T08:07:00;2.90;;;1.77;;
2522;SDS011;1272;53.332;9.860;2024-02-04T08:09:26;4.70;;;2.10;;
2522;SDS011;1272;53.332;9.860;2024-02-04T08:11:52;4.13;;;1.93;;
2522;SDS011;1272;53.332;9.860;2024-02-04T08:14:18;4.80;;;2.23;;
2522;SDS011;1272;53.332;9.860;2024-02-04T08:16:43;3.90;;;1.63;;
2522;SDS011;1272;53.332;9.860;2024-02-04T08:19:11;6.83;;;2.00;;
2522;SDS011;1272;53.332;9.860;2024-02-04T08:21:37;14.10;;;3.40;;
2522;SDS011;1272;53.332;9.860;2024-02-04T08:24:03;5.13;;;1.93;;
2522;SDS011;1272;53.332;9.860;2024-02-04T08:26:29;9.30;;;2.57;;
2522;SDS011;1272;53.332;9.860;2024-02-04T08:28:55;4.67;;;2.70;;
2522;SDS011;1272;53.332;9.860;2024-02-04T08:31:20;2.80;;;2.20;;
2522;SDS011;1272;53.332;9.860;2024-02-04T08:33:46;6.90;;;2.37;;
2522;SDS011;1272;53.332;9.860;2024-02-04T08:36:12;10.70;;;3.00;;
2522;SDS011;1272;53.332;9.860;2024-02-04T08:38:37;4.63;;;2.83;;
2522;SDS011;1272;53.332;9.860;2024-02-04T08:41:03;4.40;;;2.63;;
2522;SDS011;1272;53.332;9.860;2024-02-04T08:43:29;4.83;;;2.87;;
2522;SDS011;1272;53.332;9.860;2024-02-04T08:45:55;7.37;;;3.40;;
2522;SDS011;1272;53.332;9.860;2024-02-04T08:48:21;7.07;;;2.37;;
2522;SDS011;1272;53.332;9.860;2024-02-04T08:50:46;5.97;;;3.17;;
2522;SDS011;1272;53.332;9.860;2024-02-04T08:53:12;6.00;;;2.40;;
2522;SDS011;1272;53.332;9.860;2024-02-04T08:55:38;8.43;;;2.60;;
2522;SDS011;1272;53.332;9.860;2024-02-04T08:58:04;13.47;;;2.90;;
2522;SDS011;1272;53.332;9.860;2024-02-04T09:00:30;3.47;;;2.53;;
2522;SDS011;1272;53.332;9.860;2024-02-04T09:02:56;8.20;;;3.60;;
2522;SDS011;1272;53.332;9.860;2024-02-04T09:05:21;4.23;;;2.70;;
2522;SDS011;1272;53.332;9.860;2024-02-04T09:07:47;5.90;;;2.73;;
2522;SDS011;1272;53.332;9.860;2024-02-04T09:10:13;5.20;;;3.03;;
2522;SDS011;1272;53.332;9.860;2024-02-04T09:12:39;6.13;;;2.93;;
2522;SDS011;1272;53.332;9.860;2024-02-04T09:15:05;7.23;;;3.10;;
2522;SDS011;1272;53.332;9.860;2024-02-04T09:17:31;9.83;;;3.27;;
2522;SDS011;1272;53.332;9.860;2024-02-04T09:20:00;9.00;;;3.53;;
2522;SDS011;1272;53.332;9.860;2024-02-04T09:22:26;6.33;;;3.93;;
2522;SDS011;1272;53.332;9.860;2024-02-04T09:24:51;3.70;;;2.93;;
2522;SDS011;1272;53.332;9.860;2024-02-04T09:27:17;6.17;;;2.67;;
2522;SDS011;1272;53.332;9.860;2024-02-04T09:29:43;4.90;;;2.97;;
2522;SDS011;1272;53.332;9.860;2024-02-04T09:32:08;6.50;;;2.97;;
2522;SDS011;1272;53.332;9.860;2024-02-04T09:34:34;3.10;;;2.40;;
2522;SDS011;1272;53.332;9.860;2024-02-04T09:37:00;2.93;;;2.60;;
2522;SDS011;1272;53.332;9.860;2024-02-04T09:39:26;6.93;;;2.60;;
2522;SDS011;1272;53.332;9.860;2024-02-04T09:41:51;6.20;;;3.80;;
2522;SDS011;1272;53.332;9.860;2024-02-04T09:44:18;2.90;;;2.67;;
2522;SDS011;1272;53.332;9.860;2024-02-04T09:46:45;9.20;;;4.27;;
2522;SDS011;1272;53.332;9.860;2024-02-04T09:49:11;5.80;;;3.30;;
2522;SDS011;1272;53.332;9.860;2024-02-04T09:51:39;5.70;;;2.63;;
2522;SDS011;1272;53.332;9.860;2024-02-04T09:54:05;5.67;;;2.83;;
2522;SDS011;1272;53.332;9.860;2024-02-04T09:56:33;5.03;;;2.80;;
2522;SDS011;1272;53.332;9.860;2024-02-04T09:59:01;5.20;;;2.40;;
2522;SDS011;1272;53.332;9.860;2024-02-04T10:01:26;6.23;;;2.00;;
2522;SDS011;1272;53.332;9.860;2024-02-04T10:03:52;3.10;;;2.90;;
2522;SDS011;1272;53.332;9.860;2024-02-04T10:06:18;8.20;;;2.70;;
2522;SDS011;1272;53.332;9.860;2024-02-04T10:08:44;3.63;;;2.20;;
2522;SDS011;1272;53.332;9.860;2024-02-04T10:11:11;4.17;;;2.33;;
2522;SDS011;1272;53.332;9.860;2024-02-04T10:13:46;4.40;;;3.47;;
2522;SDS011;1272;53.332;9.860;2024-02-04T10:16:13;3.60;;;1.90;;
2522;SDS011;1272;53.332;9.860;2024-02-04T10:18:43;8.07;;;2.47;;
2522;SDS011;1272;53.332;9.860;2024-02-04T10:21:19;8.20;;;1.83;;
2522;SDS011;1272;53.332;9.860;2024-02-04T10:23:48;7.97;;;4.50;;
2522;SDS011;1272;53.332;9.860;2024-02-04T10:26:15;3.40;;;3.10;;
2522;SDS011;1272;53.332;9.860;2024-02-04T10:28:41;5.97;;;1.90;;
2522;SDS011;1272;53.332;9.860;2024-02-04T10:31:09;11.00;;;2.33;;
2522;SDS011;1272;53.332;9.860;2024-02-04T10:33:35;7.53;;;1.93;;
2522;SDS011;1272;53.332;9.860;2024-02-04T10:36:04;4.40;;;2.40;;
2522;SDS011;1272;53.332;9.860;2024-02-04T10:38:30;12.03;;;3.77;;
2522;SDS011;1272;53.332;9.860;2024-02-04T10:40:59;5.07;;;2.20;;
2522;SDS011;1272;53.332;9.860;2024-02-04T10:43:32;8.80;;;2.90;;
2522;SDS011;1272;53.332;9.860;2024-02-04T10:46:20;7.30;;;2.93;;
2522;SDS011;1272;53.332;9.860;2024-02-04T10:48:52;2.13;;;1.90;;
2522;SDS011;1272;53.332;9.860;2024-02-04T10:51:22;5.87;;;3.67;;
2522;SDS011;1272;53.332;9.860;2024-02-04T10:53:51;7.93;;;2.63;;
2522;SDS011;1272;53.332;9.860;2024-02-04T10:56:30;4.83;;;2.03;;
2522;SDS011;1272;53.332;9.860;2024-02-04T10:59:03;7.60;;;2.87;;
2522;SDS011;1272;53.332;9.860;2024-02-04T11:01:30;11.90;;;2.80;;
2522;SDS011;1272;53.332;9.860;2024-02-04T11:03:57;6.40;;;2.10;;
2522;SDS011;1272;53.332;9.860;2024-02-04T11:06:23;10.03;;;2.40;;
2522;SDS011;1272;53.332;9.860;2024-02-04T11:08:51;4.77;;;2.50;;
2522;SDS011;1272;53.332;9.860;2024-02-04T11:11:18;2.57;;;2.10;;
2522;SDS011;1272;53.332;9.860;2024-02-04T11:13:47;6.30;;;2.00;;
2522;SDS011;1272;53.332;9.860;2024-02-04T11:16:40;7.90;;;2.63;;
2522;SDS011;1272;53.332;9.860;2024-02-04T11:27:51;16.20;;;2.70;;
2522;SDS011;1272;53.332;9.860;2024-02-04T11:30:17;7.13;;;2.07;;
2522;SDS011;1272;53.332;9.860;2024-02-04T11:32:44;6.47;;;2.47;;
2522;SDS011;1272;53.332;9.860;2024-02-04T11:35:11;4.77;;;2.80;;
2522;SDS011;1272;53.332;9.860;2024-02-04T11:37:37;6.40;;;2.03;;
2522;SDS011;1272;53.332;9.860;2024-02-04T11:40:04;3.70;;;2.03;;
2522;SDS011;1272;53.332;9.860;2024-02-04T11:42:33;4.30;;;2.10;;
2522;SDS011;1272;53.332;9.860;2024-02-04T11:45:11;17.63;;;2.40;;
2522;SDS011;1272;53.332;9.860;2024-02-04T11:47:39;2.70;;;1.63;;
2522;SDS011;1272;53.332;9.860;2024-02-04T11:50:06;7.93;;;2.87;;
2522;SDS011;1272;53.332;9.860;2024-02-04T11:52:32;2.73;;;2.10;;
2522;SDS011;1272;53.332;9.860;2024-02-04T11:54:58;6.67;;;2.03;;
2522;SDS011;1272;53.332;9.860;2024-02-04T11:57:24;3.23;;;1.80;;
2522;SDS011;1272;53.332;9.860;2024-02-04T11:59:51;4.00;;;2.30;;
2522;SDS011;1272;53.332;9.860;2024-02-04T12:02:22;2.20;;;1.73;;
2522;SDS011;1272;53.332;9.860;2024-02-04T12:04:48;4.63;;;2.40;;
2522;SDS011;1272;53.332;9.860;2024-02-04T12:07:14;4.10;;;2.27;;
2522;SDS011;1272;53.332;9.860;2024-02-04T12:09:40;6.83;;;2.20;;
2522;SDS011;1272;53.332;9.860;2024-02-04T12:12:06;4.53;;;2.77;;
2522;SDS011;1272;53.332;9.860;2024-02-04T12:14:34;4.30;;;1.70;;
2522;SDS011;1272;53.332;9.860;2024-02-04T12:17:05;6.40;;;1.93;;
2522;SDS011;1272;53.332;9.860;2024-02-04T12:19:35;6.00;;;2.53;;
2522;SDS011;1272;53.332;9.860;2024-02-04T12:22:02;4.43;;;2.33;;
2522;SDS011;1272;53.332;9.860;2024-02-04T12:24:34;11.90;;;2.30;;
2522;SDS011;1272;53.332;9.860;2024-02-04T12:27:03;7.70;;;2.63;;
2522;SDS011;1272;53.332;9.860;2024-02-04T12:29:30;7.83;;;1.83;;
2522;SDS011;1272;53.332;9.860;2024-02-04T12:32:00;3.97;;;1.90;;
2522;SDS011;1272;53.332;9.860;2024-02-04T12:34:28;9.93;;;2.67;;
2522;SDS011;1272;53.332;9.860;2024-02-04T12:36:57;4.30;;;2.30;;
2522;SDS011;1272;53.332;9.860;2024-02-04T12:39:24;1.87;;;1.30;;
2522;SDS011;1272;53.332;9.860;2024-02-04T12:41:52;2.20;;;1.97;;
2522;SDS011;1272;53.332;9.860;2024-02-04T12:44:18;5.77;;;2.40;;
2522;SDS011;1272;53.332;9.860;2024-02-04T12:46:44;5.70;;;2.53;;
2522;SDS011;1272;53.332;9.860;2024-02-04T12:49:16;11.30;;;3.30;;
2522;SDS011;1272;53.332;9.860;2024-02-04T12:51:49;4.50;;;2.27;;
2522;SDS011;1272;53.332;9.860;2024-02-04T12:54:21;3.43;;;1.60;;
2522;SDS011;1272;53.332;9.860;2024-02-04T12:59:23;2.03;;;1.90;;
2522;SDS011;1272;53.332;9.860;2024-02-04T13:01:53;8.63;;;2.30;;
2522;SDS011;1272;53.332;9.860;2024-02-04T13:04:26;5.83;;;2.00;;
2522;SDS011;1272;53.332;9.860;2024-02-04T13:06:58;3.53;;;1.70;;
2522;SDS011;1272;53.332;9.860;2024-02-04T13:09:23;2.23;;;1.60;;
2522;SDS011;1272;53.332;9.860;2024-02-04T13:11:49;5.37;;;2.23;;
2522;SDS011;1272;53.332;9.860;2024-02-04T13:14:15;7.03;;;2.27;;
2522;SDS011;1272;53.332;9.860;2024-02-04T13:16:41;5.60;;;2.70;;
2522;SDS011;1272;53.332;9.860;2024-02-04T13:19:07;1.80;;;1.70;;
2522;SDS011;1272;53.332;9.860;2024-02-04T13:21:33;6.80;;;2.50;;
2522;SDS011;1272;53.332;9.860;2024-02-04T13:23:58;2.60;;;2.17;;
2522;SDS011;1272;53.332;9.860;2024-02-04T13:26:24;6.70;;;2.13;;
2522;SDS011;1272;53.332;9.860;2024-02-04T13:28:50;3.57;;;2.03;;
2522;SDS011;1272;53.332;9.860;2024-02-04T13:31:15;4.30;;;2.40;;
2522;SDS011;1272;53.332;9.860;2024-02-04T13:33:41;5.97;;;2.07;;
2522;SDS011;1272;53.332;9.860;2024-02-04T13:36:07;3.20;;;2.00;;
2522;SDS011;1272;53.332;9.860;2024-02-04T13:38:33;5.93;;;2.30;;
2522;SDS011;1272;53.332;9.860;2024-02-04T13:41:00;7.00;;;2.00;;
2522;SDS011;1272;53.332;9.860;2024-02-04T13:43:31;11.17;;;2.60;;
2522;SDS011;1272;53.332;9.860;2024-02-04T13:45:57;6.53;;;1.87;;
2522;SDS011;1272;53.332;9.860;2024-02-04T13:48:24;5.70;;;2.53;;
2522;SDS011;1272;53.332;9.860;2024-02-04T13:50:51;2.30;;;2.10;;
2522;SDS011;1272;53.332;9.860;2024-02-04T13:53:16;2.47;;;1.90;;
2522;SDS011;1272;53.332;9.860;2024-02-04T13:55:42;6.13;;;2.07;;
2522;SDS011;1272;53.332;9.860;2024-02-04T13:58:10;4.70;;;2.03;;
2522;SDS011;1272;53.332;9.860;2024-02-04T14:00:36;7.60;;;2.40;;
2522;SDS011;1272;53.332;9.860;2024-02-04T14:03:02;2.60;;;1.80;;
2522;SDS011;1272;53.332;9.860;2024-02-04T14:05:28;3.73;;;2.20;;
2522;SDS011;1272;53.332;9.860;2024-02-04T14:07:53;5.13;;;2.13;;
2522;SDS011;1272;53.332;9.860;2024-02-04T14:10:20;7.07;;;2.40;;
2522;SDS011;1272;53.332;9.860;2024-02-04T14:12:46;5.40;;;1.90;;
2522;SDS011;1272;53.332;9.860;2024-02-04T14:15:12;6.70;;;1.73;;
2522;SDS011;1272;53.332;9.860;2024-02-04T14:17:38;4.90;;;2.30;;
2522;SDS011;1272;53.332;9.860;2024-02-04T14:20:04;2.90;;;1.73;;
2522;SDS011;1272;53.332;9.860;2024-02-04T14:22:31;7.83;;;1.67;;
2522;SDS011;1272;53.332;9.860;2024-02-04T14:24:57;7.20;;;2.00;;
2522;SDS011;1272;53.332;9.860;2024-02-04T14:27:24;6.03;;;1.93;;
2522;SDS011;1272;53.332;9.860;2024-02-04T14:29:50;3.03;;;1.80;;
2522;SDS011;1272;53.332;9.860;2024-02-04T14:32:16;4.13;;;2.30;;
2522;SDS011;1272;53.332;9.860;2024-02-04T14:34:43;5.50;;;1.77;;
2522;SDS011;1272;53.332;9.860;2024-02-04T14:37:08;5.13;;;2.70;;
2522;SDS011;1272;53.332;9.860;2024-02-04T14:39:35;3.07;;;1.57;;
2522;SDS011;1272;53.332;9.860;2024-02-04T14:42:01;6.43;;;1.87;;
2522;SDS011;1272;53.332;9.860;2024-02-04T14:44:27;4.67;;;2.47;;
2522;SDS011;1272;53.332;9.860;2024-02-04T14:46:53;7.07;;;2.07;;
2522;SDS011;1272;53.332;9.860;2024-02-04T14:49:18;3.80;;;2.27;;
2522;SDS011;1272;53.332;9.860;2024-02-04T14:51:44;1.93;;;1.60;;
2522;SDS011;1272;53.332;9.860;2024-02-04T14:54:10;4.27;;;1.50;;
2522;SDS011;1272;53.332;9.860;2024-02-04T14:56:39;2.83;;;1.87;;
2522;SDS011;1272;53.332;9.860;2024-02-04T14:59:06;8.30;;;2.90;;
2522;SDS011;1272;53.332;9.860;2024-02-04T15:01:33;6.20;;;2.97;;
2522;SDS011;1272;53.332;9.860;2024-02-04T15:04:00;10.37;;;3.20;;
2522;SDS011;1272;53.332;9.860;2024-02-04T15:06:26;3.87;;;1.90;;
2522;SDS011;1272;53.332;9.860;2024-02-04T15:08:51;8.83;;;1.93;;
2522;SDS011;1272;53.332;9.860;2024-02-04T15:11:17;14.83;;;2.90;;
2522;SDS011;1272;53.332;9.860;2024-02-04T15:13:44;3.00;;;1.60;;
2522;SDS011;1272;53.332;9.860;2024-02-04T15:16:10;9.53;;;2.33;;
2522;SDS011;1272;53.332;9.860;2024-02-04T15:18:37;4.57;;;2.37;;
2522;SDS011;1272;53.332;9.860;2024-02-04T15:21:04;7.50;;;2.57;;
2522;SDS011;1272;53.332;9.860;2024-02-04T15:23:30;6.90;;;2.70;;
2522;SDS011;1272;53.332;9.860;2024-02-04T15:25:56;4.43;;;2.50;;